createdAt,value
2019-05-23T00:01:23.676Z,99.90
2019-05-23T00:04:08.616Z,99.90
2019-05-23T00:06:40.828Z,99.90
2019-05-23T00:09:09.895Z,99.90
2019-05-23T00:11:44.648Z,99.90
2019-05-23T00:14:38.074Z,99.90
2019-05-23T00:17:09.699Z,99.90
2019-05-23T00:19:39.861Z,99.90
2019-05-23T00:22:11.676Z,99.90
2019-05-23T00:24:42.472Z,99.90
2019-05-23T00:27:11.444Z,99.90
2019-05-23T00:29:40.631Z,99.90
2019-05-23T00:32:26.673Z,99.90
2019-05-23T00:34:56.844Z,99.90
2019-05-23T00:37:27.423Z,99.90
2019-05-23T00:39:56.526Z,99.90
2019-05-23T00:42:26.122Z,99.90
2019-05-23T00:44:55.994Z,99.90
2019-05-23T00:47:24.595Z,99.90
2019-05-23T00:49:53.201Z,99.90
2019-05-23T00:52:22.018Z,99.90
2019-05-23T00:54:50.981Z,99.90
2019-05-23T00:57:20.176Z,99.90
2019-05-23T00:59:48.973Z,99.90
2019-05-23T01:02:17.875Z,99.90
2019-05-23T01:04:47.650Z,99.90
2019-05-23T01:07:17.038Z,99.90
2019-05-23T01:09:46.139Z,99.90
2019-05-23T01:12:14.763Z,99.90
2019-05-23T01:14:43.434Z,99.90
2019-05-23T01:17:11.967Z,99.90
2019-05-23T01:19:40.666Z,99.90
2019-05-23T01:22:10.821Z,99.90
2019-05-23T01:24:40.893Z,99.90
2019-05-23T01:27:10.269Z,99.90
2019-05-23T01:29:40.498Z,99.90
2019-05-23T01:32:26.189Z,99.90
2019-05-23T01:34:55.360Z,99.90
2019-05-23T01:37:24.253Z,99.90
2019-05-23T01:39:52.926Z,99.90
2019-05-23T01:42:22.331Z,99.90
2019-05-23T01:44:52.030Z,99.90
2019-05-23T01:47:21.021Z,99.90
2019-05-23T01:49:50.692Z,99.90
2019-05-23T01:52:19.207Z,99.90
2019-05-23T01:54:48.481Z,99.90
2019-05-23T01:57:17.010Z,99.90
2019-05-23T01:59:45.499Z,99.90
2019-05-23T02:02:14.297Z,99.90
2019-05-23T02:04:43.001Z,99.90
2019-05-23T02:07:11.901Z,99.90
2019-05-23T02:09:40.787Z,99.90
2019-05-23T02:12:10.710Z,99.90
2019-05-23T02:14:40.641Z,99.90
2019-05-23T02:17:10.914Z,99.90
2019-05-23T02:19:39.339Z,99.90
2019-05-23T02:22:08.547Z,99.90
2019-05-23T02:24:38.052Z,99.90
2019-05-23T02:27:08.381Z,99.90
2019-05-23T02:29:37.256Z,99.90
2019-05-23T02:32:07.060Z,99.90
2019-05-23T02:34:36.123Z,99.90
2019-05-23T02:37:06.254Z,99.90
2019-05-23T02:39:54.581Z,99.90
2019-05-23T02:42:27.536Z,99.90
2019-05-23T02:44:56.595Z,99.90
2019-05-23T02:47:26.661Z,99.90
2019-05-23T02:49:56.052Z,99.90
2019-05-23T02:52:44.189Z,99.90
2019-05-23T02:55:15.994Z,99.90
2019-05-23T02:57:46.892Z,99.90
2019-05-23T03:00:52.081Z,99.90
2019-05-23T03:03:08.827Z,99.90
2019-05-23T03:05:38.708Z,99.90
2019-05-23T03:08:09.263Z,99.90
2019-05-23T03:10:57.686Z,99.90
2019-05-23T03:13:28.842Z,99.90
2019-05-23T03:15:57.944Z,99.90
2019-05-23T03:18:34.053Z,99.90
2019-05-23T03:21:01.606Z,99.90
2019-05-23T03:23:32.668Z,99.90
2019-05-23T03:26:19.316Z,99.90
2019-05-23T03:28:48.544Z,99.90
2019-05-23T03:31:29.434Z,99.90
2019-05-23T03:33:52.073Z,99.90
2019-05-23T03:36:21.135Z,99.90
2019-05-23T03:38:51.182Z,99.90
2019-05-23T03:41:20.182Z,99.90
2019-05-23T03:43:48.858Z,99.90
2019-05-23T03:46:19.122Z,99.90
2019-05-23T03:48:47.901Z,99.90
2019-05-23T03:51:17.128Z,99.90
2019-05-23T03:53:47.061Z,99.90
2019-05-23T03:56:15.677Z,99.90
2019-05-23T03:58:44.924Z,99.90
2019-05-23T04:01:15.248Z,99.90
2019-05-23T04:03:44.676Z,99.90
2019-05-23T04:06:13.932Z,99.90
2019-05-23T04:08:43.022Z,99.90
2019-05-23T04:11:11.653Z,99.90
2019-05-23T04:13:40.150Z,99.90
2019-05-23T04:16:09.349Z,99.90
2019-05-23T04:18:38.238Z,99.90
2019-05-23T04:21:06.695Z,99.90
2019-05-23T04:23:35.362Z,99.90
2019-05-23T04:26:04.149Z,99.90
2019-05-23T04:28:32.646Z,99.90
2019-05-23T04:31:01.695Z,99.90
2019-05-23T04:33:30.515Z,99.90
2019-05-23T04:35:59.543Z,99.90
2019-05-23T04:38:28.138Z,99.90
2019-05-23T04:40:56.776Z,99.90
2019-05-23T04:43:25.296Z,99.90
2019-05-23T04:45:53.810Z,99.90
2019-05-23T04:48:22.412Z,99.90
2019-05-23T04:50:51.598Z,99.90
2019-05-23T04:53:20.290Z,99.90
2019-05-23T04:55:49.248Z,99.90
2019-05-23T04:58:17.752Z,99.90
2019-05-23T05:00:46.388Z,99.90
2019-05-23T05:03:18.358Z,99.90
2019-05-23T05:05:46.769Z,99.90
2019-05-23T05:08:15.334Z,99.90
2019-05-23T05:10:44.962Z,99.90
2019-05-23T05:13:13.379Z,99.90
2019-05-23T05:15:41.856Z,99.90
2019-05-23T05:18:11.089Z,99.90
2019-05-23T05:20:39.614Z,99.90
2019-05-23T05:23:08.132Z,99.90
2019-05-23T05:25:36.927Z,99.90
2019-05-23T05:28:06.124Z,99.90
2019-05-23T05:30:34.698Z,99.90
2019-05-23T05:33:03.476Z,99.90
2019-05-23T05:35:33.342Z,99.90
2019-05-23T05:38:01.924Z,99.90
2019-05-23T05:40:30.727Z,99.90
2019-05-23T05:42:59.943Z,99.90
2019-05-23T05:45:28.452Z,99.90
2019-05-23T05:47:56.955Z,99.90
2019-05-23T05:50:25.878Z,99.90
2019-05-23T05:52:54.570Z,99.90
2019-05-23T05:55:23.323Z,99.90
2019-05-23T05:57:51.913Z,99.90
2019-05-23T06:00:28.393Z,99.90
2019-05-23T06:03:04.053Z,99.90
2019-05-23T06:05:44.773Z,99.90
2019-05-23T06:08:14.862Z,99.90
2019-05-23T06:10:43.466Z,99.90
2019-05-23T06:13:11.982Z,99.90
2019-05-23T06:15:40.406Z,99.90
2019-05-23T06:18:09.038Z,99.90
2019-05-23T06:20:41.052Z,99.90
2019-05-23T06:23:11.961Z,99.90
2019-05-23T06:25:40.640Z,99.90
2019-05-23T06:28:09.425Z,99.90
2019-05-23T06:30:39.209Z,99.90
2019-05-23T06:33:22.540Z,99.90
2019-05-23T06:35:39.196Z,99.90
2019-05-23T06:38:07.658Z,99.90
2019-05-23T06:40:37.043Z,99.90
2019-05-23T06:43:06.414Z,99.90
2019-05-23T06:45:34.982Z,99.90
2019-05-23T06:48:04.337Z,99.90
2019-05-23T06:50:33.331Z,99.90
2019-05-23T06:53:02.533Z,99.90
2019-05-23T06:55:31.311Z,99.90
2019-05-23T06:58:00.208Z,99.90
2019-05-23T07:00:29.915Z,99.90
2019-05-23T07:02:58.420Z,99.90
2019-05-23T07:05:30.012Z,99.90
2019-05-23T07:07:58.471Z,99.90
2019-05-23T07:10:27.580Z,99.90
2019-05-23T07:12:56.086Z,99.90
2019-05-23T07:15:25.988Z,99.90
2019-05-23T07:17:54.673Z,99.90
2019-05-23T07:20:23.196Z,99.90
2019-05-23T07:22:51.698Z,99.90
2019-05-23T07:25:20.332Z,99.90
2019-05-23T07:27:49.505Z,99.90
2019-05-23T07:30:23.944Z,99.90
2019-05-23T07:32:52.869Z,99.90
2019-05-23T07:35:21.459Z,99.90
2019-05-23T07:37:49.890Z,99.90
2019-05-23T07:40:18.494Z,99.90
2019-05-23T07:42:47.441Z,99.90
2019-05-23T07:45:17.809Z,99.90
2019-05-23T07:47:46.875Z,99.90
2019-05-23T07:50:15.404Z,99.90
2019-05-23T07:52:43.998Z,99.90
2019-05-23T07:55:32.779Z,99.90
2019-05-23T07:58:01.565Z,99.90
2019-05-23T08:00:37.373Z,98.70
2019-05-23T08:03:07.107Z,99.50
2019-05-23T08:05:35.790Z,99.90
2019-05-23T08:08:04.640Z,99.90
2019-05-23T08:10:34.537Z,99.90
2019-05-23T08:13:03.324Z,99.90
2019-05-23T08:15:32.043Z,99.90
2019-05-23T08:18:00.534Z,99.90
2019-05-23T08:20:29.275Z,99.90
2019-05-23T08:22:57.788Z,99.90
2019-05-23T08:25:26.509Z,99.90
2019-05-23T08:27:54.949Z,99.90
2019-05-23T08:30:23.708Z,99.90
2019-05-23T08:32:52.158Z,99.90
2019-05-23T08:35:20.752Z,99.90
2019-05-23T08:37:49.203Z,99.90
2019-05-23T08:40:18.686Z,99.90
2019-05-23T08:42:47.392Z,99.90
2019-05-23T08:45:16.982Z,99.90
2019-05-23T08:47:45.455Z,99.90
2019-05-23T08:50:15.264Z,99.90
2019-05-23T08:52:43.692Z,99.90
2019-05-23T08:55:20.760Z,99.90
2019-05-23T08:57:49.533Z,99.90
2019-05-23T09:00:19.961Z,99.90
2019-05-23T09:02:49.110Z,99.90
2019-05-23T09:05:19.061Z,99.90
2019-05-23T09:07:47.990Z,99.90
2019-05-23T09:10:17.054Z,99.90
2019-05-23T09:12:45.879Z,99.90
2019-05-23T09:15:14.861Z,99.90
2019-05-23T09:17:53.109Z,99.50
2019-05-23T09:20:14.237Z,99.90
2019-05-23T09:22:42.761Z,99.30
2019-05-23T09:25:12.240Z,99.30
2019-05-23T09:27:40.685Z,98.70
2019-05-23T09:30:10.740Z,97.40
2019-05-23T09:32:39.469Z,97.70
2019-05-23T09:35:20.258Z,98.20
2019-05-23T09:37:39.753Z,97.80
2019-05-23T09:40:09.295Z,97.80
2019-05-23T09:42:37.820Z,97.60
2019-05-23T09:45:07.604Z,98.30
2019-05-23T09:47:36.144Z,97.70
2019-05-23T09:50:08.655Z,96.20
2019-05-23T09:52:37.099Z,95.20
2019-05-23T09:55:07.268Z,96.40
2019-05-23T09:57:35.863Z,96.20
2019-05-23T10:00:07.278Z,93.00
2019-05-23T10:02:35.947Z,82.10
2019-05-23T10:05:10.257Z,85.70
2019-05-23T10:07:38.969Z,88.90
2019-05-23T10:10:09.788Z,90.70
2019-05-23T10:12:38.383Z,91.40
2019-05-23T10:15:10.189Z,93.70
2019-05-23T10:17:38.727Z,93.30
2019-05-23T10:20:10.355Z,90.60
2019-05-23T10:22:38.810Z,89.90
2019-05-23T10:25:08.784Z,80.90
2019-05-23T10:27:37.234Z,77.60
2019-05-23T10:30:08.864Z,84.70
2019-05-23T10:32:42.822Z,72.20
2019-05-23T10:35:11.670Z,60.40
2019-05-23T10:37:40.130Z,60.60
2019-05-23T10:40:09.074Z,63.20
2019-05-23T10:42:37.947Z,62.70
2019-05-23T10:45:08.699Z,62.10
2019-05-23T10:47:37.219Z,59.80
2019-05-23T10:50:10.294Z,60.80
2019-05-23T10:52:38.935Z,63.40
2019-05-23T10:55:07.813Z,64.80
2019-05-23T10:57:36.454Z,65.60
2019-05-23T11:00:10.884Z,65.40
2019-05-23T11:02:39.999Z,68.00
2019-05-23T11:05:13.597Z,74.70
2019-05-23T11:07:41.214Z,73.90
2019-05-23T11:10:10.065Z,70.10
2019-05-23T11:12:38.512Z,65.20
2019-05-23T11:15:07.389Z,69.40
2019-05-23T11:17:36.251Z,71.00
2019-05-23T11:20:08.282Z,73.00
2019-05-23T11:22:36.732Z,71.00
2019-05-23T11:25:07.644Z,71.70
2019-05-23T11:27:36.863Z,70.20
2019-05-23T11:30:08.772Z,74.20
2019-05-23T11:32:37.294Z,77.80
2019-05-23T11:35:06.263Z,71.60
2019-05-23T11:37:34.720Z,68.90
2019-05-23T11:40:04.114Z,70.10
2019-05-23T11:42:32.625Z,65.60
2019-05-23T11:45:01.077Z,64.50
2019-05-23T11:47:32.025Z,65.60
2019-05-23T11:50:00.129Z,67.80
2019-05-23T11:52:30.008Z,66.50
2019-05-23T11:54:59.069Z,65.50
2019-05-23T11:57:27.664Z,64.10
2019-05-23T11:59:56.115Z,66.60
2019-05-23T12:02:26.363Z,67.20
2019-05-23T12:04:56.594Z,65.50
2019-05-23T12:07:26.677Z,68.20
2019-05-23T12:09:55.181Z,66.00
2019-05-23T12:12:23.888Z,65.30
2019-05-23T12:14:52.537Z,66.60
2019-05-23T12:17:22.703Z,67.00
2019-05-23T12:19:51.317Z,72.20
2019-05-23T12:22:19.934Z,72.70
2019-05-23T12:24:48.393Z,76.20
2019-05-23T12:27:16.827Z,75.90
2019-05-23T12:29:45.457Z,77.50
2019-05-23T12:32:13.983Z,76.80
2019-05-23T12:34:42.623Z,74.00
2019-05-23T12:37:20.423Z,69.90
2019-05-23T12:39:41.336Z,72.80
2019-05-23T12:42:09.765Z,74.90
2019-05-23T12:44:38.311Z,76.10
2019-05-23T12:47:08.490Z,77.60
2019-05-23T12:49:38.644Z,69.80
2019-05-23T12:52:08.287Z,71.40
2019-05-23T12:54:36.766Z,71.70
2019-05-23T12:57:05.636Z,65.60
2019-05-23T12:59:34.937Z,67.00
2019-05-23T13:02:04.996Z,66.50
2019-05-23T13:04:33.915Z,60.90
2019-05-23T13:07:03.207Z,61.00
2019-05-23T13:09:31.781Z,60.20
2019-05-23T13:12:00.214Z,63.30
2019-05-23T13:14:28.670Z,62.20
2019-05-23T13:17:00.710Z,62.70
2019-05-23T13:19:27.283Z,61.50
2019-05-23T13:21:55.709Z,61.40
2019-05-23T13:24:24.248Z,62.00
2019-05-23T13:26:52.820Z,60.00
2019-05-23T13:29:24.362Z,58.90
2019-05-23T13:31:51.611Z,63.00
2019-05-23T13:34:20.052Z,63.10
2019-05-23T13:36:48.514Z,63.80
2019-05-23T13:39:17.895Z,61.50
2019-05-23T13:41:46.594Z,62.30
2019-05-23T13:44:31.828Z,59.10
2019-05-23T13:46:45.284Z,60.70
2019-05-23T13:49:14.180Z,61.80
2019-05-23T13:51:42.970Z,62.20
2019-05-23T13:54:11.479Z,61.50
2019-05-23T13:56:39.956Z,59.80
2019-05-23T13:59:08.716Z,58.10
2019-05-23T14:01:37.785Z,58.60
2019-05-23T14:04:06.205Z,57.90
2019-05-23T14:06:34.660Z,55.10
2019-05-23T14:09:03.394Z,56.00
2019-05-23T14:11:31.987Z,56.50
2019-05-23T14:14:02.641Z,56.70
2019-05-23T14:16:32.247Z,55.90
2019-05-23T14:19:00.679Z,55.80
2019-05-23T14:21:30.798Z,56.60
2019-05-23T14:23:59.237Z,58.60
2019-05-23T14:26:29.355Z,61.60
2019-05-23T14:28:57.879Z,61.10
2019-05-23T14:31:28.093Z,62.00
2019-05-23T14:33:58.164Z,60.60
2019-05-23T14:36:37.514Z,61.20
2019-05-23T14:39:09.202Z,61.30
2019-05-23T14:41:45.348Z,60.00
2019-05-23T14:44:09.615Z,59.80
2019-05-23T14:46:39.839Z,60.60
2019-05-23T14:49:15.992Z,60.10
2019-05-23T14:51:46.151Z,60.20
2019-05-23T14:54:25.081Z,61.10
2019-05-23T14:56:54.291Z,57.00
2019-05-23T14:59:23.314Z,57.90
2019-05-23T15:01:52.575Z,59.60
2019-05-23T15:04:21.062Z,59.40
2019-05-23T15:06:49.514Z,59.70
2019-05-23T15:09:21.292Z,60.40
2019-05-23T15:11:48.798Z,59.80
2019-05-23T15:14:17.236Z,58.90
2019-05-23T15:16:45.760Z,60.10
2019-05-23T15:19:14.189Z,61.40
2019-05-23T15:21:42.643Z,64.00
2019-05-23T15:24:11.143Z,65.40
2019-05-23T15:26:39.570Z,70.20
2019-05-23T15:29:08.040Z,73.50
2019-05-23T15:31:36.700Z,74.30
2019-05-23T15:34:05.393Z,78.10
2019-05-23T15:36:33.933Z,79.70
2019-05-23T15:39:09.580Z,84.70
2019-05-23T15:41:32.537Z,90.20
2019-05-23T15:44:01.006Z,88.80
2019-05-23T15:46:29.451Z,89.10
2019-05-23T15:48:57.953Z,89.40
2019-05-23T15:51:28.030Z,87.10
2019-05-23T15:53:58.115Z,90.50
2019-05-23T15:56:44.600Z,87.00
2019-05-23T15:59:17.404Z,88.40
2019-05-23T16:01:53.385Z,89.50
2019-05-23T16:04:22.843Z,83.80
2019-05-23T16:06:51.349Z,83.10
2019-05-23T16:09:29.212Z,87.20
2019-05-23T16:11:51.030Z,89.30
2019-05-23T16:14:19.803Z,90.20
2019-05-23T16:16:48.235Z,91.40
2019-05-23T16:19:16.766Z,91.50
2019-05-23T16:21:45.380Z,92.20
2019-05-23T16:24:14.501Z,91.70
2019-05-23T16:26:42.928Z,91.40
2019-05-23T16:29:12.651Z,92.30
2019-05-23T16:31:41.780Z,91.50
2019-05-23T16:34:10.363Z,91.40
2019-05-23T16:36:38.794Z,93.30
2019-05-23T16:39:08.373Z,94.30
2019-05-23T16:41:36.893Z,93.80
2019-05-23T16:44:05.822Z,93.60
2019-05-23T16:46:34.298Z,92.70
2019-05-23T16:49:02.768Z,93.30
2019-05-23T16:51:31.276Z,91.80
2019-05-23T16:54:00.118Z,92.60
2019-05-23T16:56:46.699Z,92.60
2019-05-23T16:59:28.786Z,90.80
2019-05-23T17:02:07.616Z,91.00
2019-05-23T17:04:46.585Z,88.90
2019-05-23T17:07:28.871Z,88.60
2019-05-23T17:10:13.725Z,89.20
2019-05-23T17:12:43.874Z,89.40
2019-05-23T17:15:26.047Z,84.00
2019-05-23T17:18:08.277Z,86.60
2019-05-23T17:20:56.541Z,86.60
2019-05-23T17:23:29.765Z,85.50
2019-05-23T17:26:08.690Z,87.00
2019-05-23T17:28:39.047Z,83.90
2019-05-23T17:31:09.411Z,83.40
2019-05-23T17:33:38.210Z,83.60
2019-05-23T17:36:06.808Z,82.30
2019-05-23T17:38:35.334Z,83.40
2019-05-23T17:41:04.011Z,86.20
2019-05-23T17:43:32.521Z,85.80
2019-05-23T17:46:00.972Z,87.80
2019-05-23T17:48:29.427Z,89.70
2019-05-23T17:50:58.008Z,90.20
2019-05-23T17:53:26.527Z,89.50
2019-05-23T17:55:55.619Z,89.80
2019-05-23T17:58:25.096Z,90.10
2019-05-23T18:00:53.631Z,88.70
2019-05-23T18:03:22.239Z,90.10
2019-05-23T18:05:51.151Z,91.10
2019-05-23T18:08:19.909Z,91.60
2019-05-23T18:10:48.354Z,91.70
2019-05-23T18:13:16.807Z,92.00
2019-05-23T18:15:45.702Z,91.80
2019-05-23T18:18:14.525Z,92.70
2019-05-23T18:20:44.101Z,93.10
2019-05-23T18:23:12.725Z,93.30
2019-05-23T18:25:41.411Z,93.50
2019-05-23T18:28:12.062Z,93.80
2019-05-23T18:30:58.138Z,94.50
2019-05-23T18:33:28.282Z,95.00
2019-05-23T18:35:57.635Z,95.70
2019-05-23T18:38:26.188Z,96.10
2019-05-23T18:41:03.129Z,96.40
2019-05-23T18:43:25.756Z,96.90
2019-05-23T18:45:55.922Z,97.40
2019-05-23T18:48:24.600Z,97.90
2019-05-23T18:50:53.206Z,98.40
2019-05-23T18:53:22.096Z,99.10
2019-05-23T18:55:50.605Z,99.50
2019-05-23T18:58:20.088Z,99.60
2019-05-23T19:00:56.630Z,99.90
2019-05-23T19:03:25.149Z,99.90
2019-05-23T19:05:53.580Z,99.90
2019-05-23T19:08:23.090Z,99.90
2019-05-23T19:10:51.619Z,99.90
2019-05-23T19:13:20.313Z,99.90
2019-05-23T19:15:49.091Z,99.90
2019-05-23T19:18:17.614Z,99.90
2019-05-23T19:20:46.476Z,99.90
2019-05-23T19:23:14.923Z,99.90
2019-05-23T19:25:44.641Z,99.90
2019-05-23T19:28:13.090Z,99.90
2019-05-23T19:30:42.260Z,99.90
2019-05-23T19:33:10.994Z,99.90
2019-05-23T19:35:39.728Z,99.90
2019-05-23T19:38:08.466Z,99.90
2019-05-23T19:40:37.133Z,99.90
2019-05-23T19:43:06.634Z,99.90
2019-05-23T19:45:35.616Z,99.90
2019-05-23T19:48:04.421Z,99.90
2019-05-23T19:50:33.953Z,99.90
2019-05-23T19:53:02.409Z,99.90
2019-05-23T19:55:31.713Z,99.90
2019-05-23T19:58:00.623Z,99.90
2019-05-23T20:00:31.244Z,99.90
2019-05-23T20:03:03.708Z,99.90
2019-05-23T20:05:40.688Z,99.90
2019-05-23T20:08:09.483Z,99.90
2019-05-23T20:10:39.432Z,99.90
2019-05-23T20:13:08.045Z,99.90
2019-05-23T20:15:36.541Z,99.90
2019-05-23T20:18:06.593Z,99.90
2019-05-23T20:20:36.728Z,99.90
2019-05-23T20:23:05.215Z,99.90
2019-05-23T20:25:34.274Z,99.90
2019-05-23T20:28:02.777Z,99.90
2019-05-23T20:30:46.188Z,99.90
2019-05-23T20:33:15.310Z,99.90
2019-05-23T20:35:43.814Z,99.90
2019-05-23T20:38:12.296Z,99.90
2019-05-23T20:40:40.743Z,99.90
2019-05-23T20:43:09.249Z,99.90
2019-05-23T20:45:37.966Z,99.90
2019-05-23T20:48:07.765Z,99.90
2019-05-23T20:50:36.498Z,99.90
2019-05-23T20:53:05.269Z,99.90
2019-05-23T20:55:34.088Z,99.90
2019-05-23T20:58:03.229Z,99.90
2019-05-23T21:00:36.318Z,99.90
2019-05-23T21:03:05.348Z,99.90
2019-05-23T21:05:33.945Z,99.90
2019-05-23T21:08:02.372Z,99.90
2019-05-23T21:10:39.412Z,99.90
2019-05-23T21:13:07.929Z,99.90
2019-05-23T21:15:36.600Z,99.90
2019-05-23T21:18:05.884Z,99.90
2019-05-23T21:20:34.606Z,99.90
2019-05-23T21:23:03.090Z,99.90
2019-05-23T21:25:32.395Z,99.90
2019-05-23T21:28:00.832Z,99.90
2019-05-23T21:30:29.299Z,99.90
2019-05-23T21:32:57.734Z,99.90
2019-05-23T21:35:26.180Z,99.90
2019-05-23T21:37:54.616Z,99.90
2019-05-23T21:40:37.837Z,99.90
2019-05-23T21:43:06.334Z,99.90
2019-05-23T21:45:34.856Z,99.90
2019-05-23T21:48:03.556Z,99.90
2019-05-23T21:50:32.179Z,99.90
2019-05-23T21:53:00.685Z,99.90
2019-05-23T21:55:37.671Z,99.90
2019-05-23T21:58:06.934Z,99.90
2019-05-23T22:01:07.005Z,99.90
2019-05-23T22:03:55.327Z,99.90
2019-05-23T22:06:42.787Z,99.90
2019-05-23T22:09:12.866Z,99.90
2019-05-23T22:11:41.562Z,99.90
2019-05-23T22:14:10.062Z,99.90
2019-05-23T22:16:38.683Z,99.90
2019-05-23T22:19:09.026Z,99.90
2019-05-23T22:21:37.478Z,99.90
2019-05-23T22:24:06.953Z,99.90
2019-05-23T22:26:35.417Z,99.90
2019-05-23T22:29:03.927Z,99.90
2019-05-23T22:31:32.373Z,99.90
2019-05-23T22:34:02.452Z,99.90
2019-05-23T22:36:30.913Z,99.90
2019-05-23T22:38:59.421Z,99.90
2019-05-23T22:41:27.865Z,99.90
2019-05-23T22:43:56.299Z,99.90
2019-05-23T22:46:26.127Z,99.90
2019-05-23T22:48:54.633Z,99.90
2019-05-23T22:51:23.154Z,99.90
2019-05-23T22:53:51.619Z,99.90
2019-05-23T22:56:20.054Z,99.90
2019-05-23T22:58:48.524Z,99.90
2019-05-23T23:01:17.094Z,99.90
2019-05-23T23:03:45.559Z,99.90
2019-05-23T23:06:14.282Z,99.90
2019-05-23T23:08:42.792Z,99.90
2019-05-23T23:11:11.721Z,99.90
2019-05-23T23:13:40.402Z,99.90
2019-05-23T23:16:09.292Z,99.90
2019-05-23T23:18:37.731Z,99.90
2019-05-23T23:21:06.170Z,99.90
2019-05-23T23:23:34.614Z,99.90
2019-05-23T23:26:03.046Z,99.90
2019-05-23T23:28:31.648Z,99.90
2019-05-23T23:31:00.079Z,99.90
2019-05-23T23:33:28.521Z,99.90
2019-05-23T23:35:57.021Z,99.90
2019-05-23T23:38:25.480Z,99.90
2019-05-23T23:40:53.910Z,99.90
2019-05-23T23:43:22.371Z,99.90
2019-05-23T23:46:08.380Z,99.90
2019-05-23T23:48:54.735Z,99.90
2019-05-23T23:51:41.217Z,99.90
2019-05-23T23:54:27.298Z,99.90
2019-05-23T23:57:13.454Z,99.90
2019-05-23T23:59:41.290Z,99.90
